Hauptseite
METAR-TAF:

METAR-TAF

Flughäfen :

Vojens, Dänemark

Breite: 55-14N, Länge: 009-16E, Höhe: 43 m

Beobachtung

Neuester Wetterbericht von vor 36 Minuten, um 19:20 UTC
Wind 4 kt aus West/Südwest
Temperatur 14°C
Luftfeuchtigkeit 82%
Luftdruck 1015 hPa
Sichtweite 10 km oder mehr
Leicht bewölkt in der Höhe von 2000 ft

METAR: EKSP 231920Z 24004KT 9999 FEW020 14/11 Q1015

Zeit: 21:56 (19:56 UTC)

Prognose

Neuester Wetterbericht von vor 2 Stunden und 47 Minuten, um 17:09 UTC
Gültige Prognose vom 23 um 18 UTC bis 24 um 18 UTC
Wind 8 kt aus Südwest
Sichtweite 10 km oder mehr
Aufgelockert bewölkt in der Höhe von 3000 ft
Zeitweise
vom 23 um 21 UTC bis 24 um 06 UTC
Sichtweite: 3000 m
Durchbrochene Bewölkung in der Höhe von 500 ft
feuchter Dunst,

TAF: EKSP 231709Z 2318/2418 23008KT 9999 SCT030 TEMPO 2321/2406 3000 BR BKN005

Wetterbeobachtungen und Prognosen von mehr als 4000 Flughäfen (METAR und TAF Bericht).

Die verfügbaren Stationen werden durch gelbe und rote Markierungen auf der Karte dargestellt.

Führen Sie die Maus auf sie, um den Namen der Station zu sehen.

Darauf klicken, um die Beobachtung von Wetterbeobachtungen und Prognosen zu sehen.

Um die Karte zu ändern : klicken Sie auf den grünen Tasten mit einem schwarzen Kreuz Zum Vergrößern, auf den grünen Button mit einem Gedankenstrich zu verkleinern, oder auf die grünen Pfeile für benachbarte Karten.


METAR-TAF: